createdAt,value
2019-04-05T03:07:13.689Z,20
2019-04-05T03:08:03.496Z,20
2019-04-05T03:09:08.771Z,20
2019-04-05T03:09:44.180Z,20
2019-04-05T03:10:34.202Z,20
2019-04-05T03:11:23.932Z,20
2019-04-05T03:12:13.858Z,20.1
2019-04-05T03:13:04.121Z,20.1
2019-04-05T03:13:54.228Z,20.1
2019-04-05T03:14:44.136Z,20.1
2019-04-05T03:15:33.457Z,20.1
2019-04-05T03:16:43.647Z,20.1
2019-04-05T03:17:14.443Z,20.1
2019-04-05T03:18:04.559Z,20.1
2019-04-05T03:18:54.555Z,20.1
2019-04-05T03:19:44.093Z,20.1
2019-04-05T03:20:34.378Z,20.1
2019-04-05T03:21:24.783Z,20.1
2019-04-05T03:22:14.753Z,20.1
2019-04-05T03:23:04.918Z,20.1
2019-04-05T03:23:55.170Z,20.1
2019-04-05T03:24:45.231Z,20.1
2019-04-05T03:25:35.154Z,20.1
2019-04-05T03:26:25.380Z,20.1
2019-04-05T03:27:14.867Z,20.1
2019-04-05T03:28:05.192Z,20.1
2019-04-05T03:28:55.524Z,20.1
2019-04-05T03:29:45.283Z,20.1
2019-04-05T03:30:35.954Z,20.1
2019-04-05T03:31:31.086Z,20.1
2019-04-05T03:32:16.003Z,20.1
2019-04-05T03:33:05.885Z,20.1
2019-04-05T03:33:56.092Z,20.1
2019-04-05T03:34:46.295Z,20.1
2019-04-05T03:35:35.930Z,20.1
2019-04-05T03:36:25.508Z,20.1
2019-04-05T03:37:15.300Z,20.1
2019-04-05T03:38:05.680Z,20.1
2019-04-05T03:38:55.721Z,20.1
2019-04-05T03:39:46.347Z,20.1
2019-04-05T03:40:35.527Z,20.1
2019-04-05T03:41:26.715Z,20.1
2019-04-05T03:42:15.982Z,20.1
2019-04-05T03:43:05.619Z,20.1
2019-04-05T03:43:56.374Z,20.1
2019-04-05T03:44:45.912Z,20.1
2019-04-05T03:45:36.445Z,20.1
2019-04-05T03:46:26.232Z,20.1
2019-04-05T03:47:16.582Z,20.1
2019-04-05T03:48:06.494Z,20.1
2019-04-05T03:48:56.777Z,20.1
2019-04-05T03:49:47.074Z,20.1
2019-04-05T03:50:36.553Z,20.1
2019-04-05T03:51:26.758Z,20.1
2019-04-05T03:52:17.218Z,20.1
2019-04-05T03:53:07.293Z,20.1
2019-04-05T03:53:57.113Z,20.1
2019-04-05T03:54:47.132Z,20.1
2019-04-05T03:55:37.171Z,20.1
2019-04-05T03:56:27.559Z,20.1
2019-04-05T03:57:17.334Z,20.1
2019-04-05T03:58:06.761Z,20.1
2019-04-05T03:58:57.213Z,20.1
2019-04-05T03:59:47.471Z,20.1
2019-04-05T04:00:37.850Z,20.1
2019-04-05T04:01:27.388Z,20.1
2019-04-05T04:02:17.153Z,20.1
2019-04-05T04:03:07.705Z,20.1
2019-04-05T04:03:57.268Z,20.1
2019-04-05T04:05:02.331Z,20.1
2019-04-05T04:05:37.613Z,20.1
2019-04-05T04:06:28.042Z,20.1
2019-04-05T04:07:18.132Z,20.1
2019-04-05T04:08:08.181Z,20.1
2019-04-05T04:08:57.463Z,20.1
2019-04-05T04:09:48.512Z,20.1
2019-04-05T04:10:38.246Z,20.1
2019-04-05T04:11:28.332Z,20.1
2019-04-05T04:12:18.432Z,20.1
2019-04-05T04:13:08.581Z,20.1
2019-04-05T04:13:58.755Z,20.1
2019-04-05T04:14:48.540Z,20.1
2019-04-05T04:15:38.698Z,20.1
2019-04-05T04:16:28.709Z,20.1
2019-04-05T04:17:18.055Z,20.1
2019-04-05T04:18:09.060Z,20.1
2019-04-05T04:18:59.188Z,20.1
2019-04-05T04:19:49.221Z,20.1
2019-04-05T04:20:39.322Z,20.1
2019-04-05T04:21:28.788Z,20.1
2019-04-05T04:22:19.151Z,20.2
2019-04-05T04:23:09.445Z,20.1
2019-04-05T04:23:59.504Z,20.1
2019-04-05T04:24:49.447Z,20.2
2019-04-05T04:25:39.384Z,20.1
2019-04-05T04:26:29.702Z,20.1
2019-04-05T04:27:19.005Z,20.1
2019-04-05T04:28:09.256Z,20.2
2019-04-05T04:28:59.980Z,20.1
2019-04-05T04:29:49.639Z,20.2
2019-04-05T04:30:39.412Z,20.2
2019-04-05T04:31:29.842Z,20.2
2019-04-05T04:32:20.257Z,20.1
2019-04-05T04:33:10.034Z,20.1
2019-04-05T04:34:00.049Z,20.1
2019-04-05T04:34:50.003Z,20.1
2019-04-05T04:35:54.813Z,20.2
2019-04-05T04:36:29.867Z,20.2
2019-04-05T04:37:20.176Z,20.2
2019-04-05T04:38:10.845Z,20.2
2019-04-05T04:39:00.315Z,20.1
2019-04-05T04:39:50.364Z,20.1
2019-04-05T04:40:40.473Z,20.2
2019-04-05T04:41:34.859Z,20.1
2019-04-05T04:42:20.819Z,20.2
2019-04-05T04:43:10.572Z,20.1
2019-04-05T04:44:01.016Z,20.1
2019-04-05T04:44:51.003Z,20.2
2019-04-05T04:45:39.975Z,20.1
2019-04-05T04:46:30.819Z,20.1
2019-04-05T04:47:32.204Z,20.1
2019-04-05T04:48:11.290Z,20.1
2019-04-05T04:49:01.019Z,20.1
2019-04-05T04:49:51.075Z,20.1
2019-04-05T04:50:40.825Z,20.1
2019-04-05T04:51:31.420Z,20.1
2019-04-05T04:52:35.877Z,20.1
2019-04-05T04:53:11.262Z,20.1
2019-04-05T04:54:01.082Z,20.1
2019-04-05T04:54:51.653Z,20.1
2019-04-05T04:55:41.777Z,20.1
2019-04-05T04:56:31.505Z,20.1
2019-04-05T04:57:21.845Z,20.1
2019-04-05T04:58:25.768Z,20.1
2019-04-05T04:59:01.374Z,20.1
2019-04-05T04:59:51.472Z,20.1
2019-04-05T05:00:41.829Z,20.1
2019-04-05T05:01:31.654Z,20.1
2019-04-05T05:02:22.233Z,20.1
2019-04-05T05:03:12.075Z,20.1
2019-04-05T05:04:02.140Z,20.1
2019-04-05T05:04:52.472Z,20.1
2019-04-05T05:05:42.485Z,20.1
2019-04-05T05:06:32.247Z,20.1
2019-04-05T05:07:22.298Z,20.1
2019-04-05T05:08:12.385Z,20.1
2019-04-05T05:09:02.441Z,20.1
2019-04-05T05:09:52.489Z,20.1
2019-04-05T05:10:42.544Z,20.1
2019-04-05T05:11:31.759Z,20.1
2019-04-05T05:12:22.656Z,20.1
2019-04-05T05:13:12.239Z,20.1
2019-04-05T05:14:03.052Z,20.1
2019-04-05T05:14:52.089Z,20.1
2019-04-05T05:15:43.171Z,20.1
2019-04-05T05:16:31.445Z,20.1
2019-04-05T05:17:22.587Z,20.1
2019-04-05T05:18:12.332Z,20
2019-04-05T05:19:02.383Z,20
2019-04-05T05:19:52.451Z,20
2019-04-05T05:20:45.223Z,20
2019-04-05T05:21:32.571Z,20
2019-04-05T05:22:22.893Z,20
2019-04-05T05:23:12.761Z,20
2019-04-05T05:24:03.022Z,20
2019-04-05T05:24:53.358Z,20
2019-04-05T05:25:43.159Z,20
2019-04-05T05:26:33.953Z,20
2019-04-05T05:27:23.261Z,20
2019-04-05T05:28:14.075Z,20
2019-04-05T05:29:03.727Z,19.9
2019-04-05T05:29:53.445Z,19.9
2019-04-05T05:30:43.910Z,19.9
2019-04-05T05:31:33.754Z,19.9
2019-04-05T05:32:23.545Z,19.9
2019-04-05T05:33:13.887Z,19.9
2019-04-05T05:34:03.941Z,19.9
2019-04-05T05:35:07.496Z,19.9
2019-04-05T05:35:44.076Z,19.9
2019-04-05T05:36:34.360Z,19.9
2019-04-05T05:37:23.928Z,19.9
2019-04-05T05:38:29.479Z,19.9
2019-04-05T05:39:04.885Z,19.9
2019-04-05T05:39:54.618Z,19.9
2019-04-05T05:40:44.708Z,19.9
2019-04-05T05:41:34.805Z,19.9
2019-04-05T05:42:24.553Z,19.9
2019-04-05T05:43:15.166Z,19.9
2019-04-05T05:44:05.230Z,19.9
2019-04-05T05:44:55.059Z,19.9
2019-04-05T05:45:45.135Z,19.9
2019-04-05T05:46:34.913Z,19.9
2019-04-05T05:47:25.256Z,19.9
2019-04-05T05:48:15.027Z,19.9
2019-04-05T05:49:05.638Z,19.9
2019-04-05T05:49:55.685Z,19.9
2019-04-05T05:50:45.672Z,19.9
2019-04-05T05:51:35.759Z,19.9
2019-04-05T05:52:25.773Z,19.9
2019-04-05T05:53:14.776Z,19.9
2019-04-05T05:54:05.701Z,19.9
2019-04-05T05:54:55.019Z,19.9
2019-04-05T05:55:45.801Z,19.9
2019-04-05T05:56:35.666Z,19.9
2019-04-05T05:57:26.409Z,19.9
2019-04-05T05:58:15.666Z,19.8
2019-04-05T05:59:06.055Z,19.9
2019-04-05T05:59:56.363Z,19.8
2019-04-05T06:00:46.134Z,23.9
2019-04-05T06:01:35.663Z,25.9
2019-04-05T06:02:25.513Z,25.9
2019-04-05T06:05:12.466Z,30
2019-04-05T06:06:09.484Z,28
2019-04-05T06:06:53.341Z,25.8
2019-04-05T06:07:42.653Z,25
2019-04-05T06:08:34.626Z,24.5
2019-04-05T06:09:23.031Z,24.1
2019-04-05T06:10:13.913Z,23.9
2019-04-05T06:11:02.845Z,23.7
2019-04-05T06:11:54.068Z,23.6
2019-04-05T06:12:43.775Z,23.4
2019-04-05T06:13:33.910Z,23.3
2019-04-05T06:14:24.545Z,23.2
2019-04-05T06:15:13.945Z,23.1
2019-04-05T06:16:04.591Z,23
2019-04-05T06:17:09.558Z,22.9
2019-04-05T06:17:44.742Z,22.8
2019-04-05T06:18:34.726Z,22.8
2019-04-05T06:19:24.573Z,22.4
2019-04-05T06:20:13.891Z,26.3
2019-04-05T06:21:08.220Z,27.8
2019-04-05T06:21:54.967Z,29.3
2019-04-05T06:22:44.182Z,31.3
2019-04-05T06:23:38.669Z,32.2
2019-04-05T06:24:25.172Z,32.2
2019-04-05T06:25:15.395Z,31.9
2019-04-05T06:26:05.032Z,31.4
2019-04-05T06:26:55.075Z,31.3
2019-04-05T06:27:45.110Z,31.3
2019-04-05T06:28:35.875Z,31.5
2019-04-05T06:29:25.565Z,31.9
2019-04-05T06:30:15.084Z,32.2
2019-04-05T06:31:05.759Z,32.4
2019-04-05T06:31:55.454Z,32.6
2019-04-05T06:32:44.921Z,32.7
2019-04-05T06:33:40.240Z,32.8
2019-04-05T06:34:25.336Z,32.9
2019-04-05T06:35:15.642Z,33.1
2019-04-05T06:36:05.480Z,33.1
2019-04-05T06:36:56.374Z,33.3
2019-04-05T06:37:45.842Z,33.4
2019-04-05T06:38:35.344Z,33.6
2019-04-05T06:39:25.752Z,33.8
2019-04-05T06:40:15.776Z,33.9
2019-04-05T06:41:06.224Z,34
2019-04-05T06:41:55.579Z,34.2
2019-04-05T06:42:46.149Z,34.4
2019-04-05T06:43:35.697Z,34.5
2019-04-05T06:44:29.681Z,34.6
2019-04-05T06:45:16.202Z,34.8
2019-04-05T06:46:08.346Z,34.9
2019-04-05T06:46:56.703Z,35.1
2019-04-05T06:47:46.374Z,35.2
2019-04-05T06:48:36.896Z,35.4
2019-04-05T06:49:26.966Z,35.5
2019-04-05T06:50:16.163Z,35.6
2019-04-05T06:51:06.575Z,35.8
2019-04-05T06:51:56.878Z,35.9
2019-04-05T06:53:01.561Z,36.1
2019-04-05T06:53:36.973Z,36.3
2019-04-05T06:54:27.313Z,36.4
2019-04-05T06:55:17.371Z,36.5
2019-04-05T06:56:07.180Z,36.6
2019-04-05T06:56:57.238Z,36.8
2019-04-05T06:57:47.847Z,36.9
2019-04-05T06:58:37.618Z,37.1
2019-04-05T06:59:27.430Z,37.2
2019-04-05T07:00:17.211Z,37.4
2019-04-05T07:01:06.941Z,37.4
2019-04-05T07:01:57.838Z,37.7
2019-04-05T07:02:47.958Z,37.8
2019-04-05T07:05:13.525Z,38.1
2019-04-05T07:06:03.528Z,38.3
2019-04-05T07:06:53.860Z,38.4
2019-04-05T07:07:43.820Z,38.6
2019-04-05T07:08:33.520Z,38.8
2019-04-05T07:09:23.490Z,38.9
2019-04-05T07:10:13.807Z,39
2019-04-05T07:11:04.213Z,39.2
2019-04-05T07:11:53.992Z,39.3
2019-04-05T07:12:43.740Z,39.4
2019-04-05T07:13:33.974Z,39.6
2019-04-05T07:14:24.417Z,39.6
2019-04-05T07:15:13.957Z,39.8
2019-04-05T07:16:04.497Z,39.9
2019-04-05T07:16:54.572Z,40.1
2019-04-05T07:17:44.614Z,40.2
2019-04-05T07:18:40.777Z,40.3
2019-04-05T07:19:24.759Z,40.5
2019-04-05T07:20:14.331Z,40.6
2019-04-05T07:21:04.344Z,40.8
2019-04-05T07:21:54.667Z,40.9
2019-04-05T07:22:44.262Z,41
2019-04-05T07:23:34.803Z,41.1
2019-04-05T07:24:24.892Z,41.3
2019-04-05T07:25:14.919Z,41.4
2019-04-05T07:26:05.224Z,41.5
2019-04-05T07:26:54.507Z,41.7
2019-04-05T07:27:45.360Z,41.8
2019-04-05T07:28:35.164Z,42
2019-04-05T07:29:25.526Z,42.1
2019-04-05T07:30:15.803Z,42.3
2019-04-05T07:31:05.143Z,42.4
2019-04-05T07:31:55.098Z,42.6
2019-04-05T07:32:45.177Z,42.8
2019-04-05T07:33:35.256Z,43
2019-04-05T07:34:25.558Z,43.1
2019-04-05T07:35:15.639Z,43.3
2019-04-05T07:36:08.383Z,43.5
2019-04-05T07:36:56.098Z,43.7
2019-04-05T07:37:45.791Z,43.8
2019-04-05T07:38:35.318Z,44
2019-04-05T07:39:26.232Z,44.2
2019-04-05T07:40:15.705Z,44.3
2019-04-05T07:41:05.845Z,44.5
2019-04-05T07:41:55.835Z,44.7
2019-04-05T07:42:46.229Z,44.9
2019-04-05T07:43:36.505Z,45
2019-04-05T07:44:26.013Z,44.4
2019-04-05T07:45:16.082Z,44
2019-04-05T07:46:06.138Z,43.2
2019-04-05T07:46:56.744Z,42.2
2019-04-05T07:47:46.523Z,41.2
2019-04-05T07:48:50.220Z,40.3
2019-04-05T07:49:26.730Z,39.1
2019-04-05T07:50:16.435Z,38.4
2019-04-05T07:51:07.042Z,38.1
2019-04-05T07:51:57.108Z,38.3
2019-04-05T07:52:47.235Z,38.6
2019-04-05T07:53:37.240Z,38.6
2019-04-05T07:54:27.005Z,38.7
2019-04-05T07:55:16.790Z,38.7
2019-04-05T07:56:06.871Z,38.6
2019-04-05T07:56:56.934Z,38.6
2019-04-05T07:57:47.287Z,38.6
2019-04-05T07:58:37.325Z,38.9
2019-04-05T07:59:27.662Z,39.3
2019-04-05T08:01:07.754Z,40.1
2019-04-05T08:01:57.544Z,40.2
2019-04-05T08:02:47.363Z,40.1
2019-04-05T08:03:37.675Z,39.9
2019-04-05T08:04:27.462Z,39.8
2019-04-05T08:05:17.799Z,39.8
2019-04-05T08:06:07.594Z,39.8
2019-04-05T08:06:58.193Z,39.8
2019-04-05T08:07:48.258Z,39.9
2019-04-05T08:08:38.312Z,39.9
2019-04-05T08:09:28.430Z,39.9
2019-04-05T08:10:17.920Z,39.8
2019-04-05T08:11:08.330Z,39.8
2019-04-05T08:11:58.540Z,39.8
2019-04-05T08:12:48.345Z,39.8
2019-04-05T08:13:38.698Z,39.8
2019-04-05T08:14:28.540Z,39.8
2019-04-05T08:15:18.495Z,39.8
2019-04-05T08:16:08.602Z,39.8
2019-04-05T08:16:58.627Z,39.8
2019-04-05T08:17:47.885Z,39.8
2019-04-05T08:18:38.498Z,39.8
2019-04-05T08:19:28.592Z,39.8
2019-04-05T08:20:18.947Z,39.8
2019-04-05T08:21:08.955Z,39.8
2019-04-05T08:21:59.297Z,39.8
2019-04-05T08:22:48.827Z,39.9
2019-04-05T08:23:38.847Z,39.9
2019-04-05T08:24:29.257Z,39.9
2019-04-05T08:25:18.974Z,39.9
2019-04-05T08:26:09.560Z,39.9
2019-04-05T08:26:59.645Z,39.9
2019-04-05T08:27:49.452Z,39.9
2019-04-05T08:28:39.809Z,39.9
2019-04-05T08:29:29.294Z,39.9
2019-04-05T08:30:19.839Z,39.9
2019-04-05T08:31:18.135Z,39.9
2019-04-05T08:31:59.794Z,39.9
2019-04-05T08:32:50.074Z,40
2019-04-05T08:33:41.532Z,40.1
2019-04-05T08:34:30.201Z,40.1
2019-04-05T08:35:19.699Z,40.3
2019-04-05T08:36:09.801Z,40.4
2019-04-05T08:37:00.077Z,40.7
2019-04-05T08:37:50.134Z,41
2019-04-05T08:38:43.687Z,41.3
2019-04-05T08:39:29.768Z,41.8
2019-04-05T08:40:20.326Z,42
2019-04-05T08:41:10.679Z,42.1
2019-04-05T08:42:00.448Z,42.2
2019-04-05T08:42:49.977Z,42.2
2019-04-05T08:43:39.796Z,42.1
2019-04-05T08:44:30.625Z,42.1
2019-04-05T08:45:20.688Z,42.1
2019-04-05T08:46:10.481Z,42.3
2019-04-05T08:47:01.078Z,42.4
2019-04-05T08:47:50.693Z,42.8
2019-04-05T08:48:40.928Z,43.1
2019-04-05T08:49:30.735Z,43.4
2019-04-05T08:50:21.311Z,43.5
2019-04-05T08:51:11.114Z,43.5
2019-04-05T08:52:00.933Z,43.5
2019-04-05T08:52:51.298Z,43.6
2019-04-05T08:53:41.283Z,43.8
2019-04-05T08:54:41.346Z,44
2019-04-05T08:55:21.693Z,44.2
2019-04-05T08:56:11.413Z,43.9
2019-04-05T08:57:01.551Z,42.6
2019-04-05T08:57:52.849Z,42.4
2019-04-05T08:58:41.385Z,42.4
2019-04-05T08:59:31.732Z,42.3
2019-04-05T09:00:21.510Z,42.4
2019-04-05T09:01:12.216Z,42.4
2019-04-05T09:02:01.897Z,42.6
2019-04-05T09:02:53.201Z,42.7
2019-04-05T09:03:41.775Z,42.6
2019-04-05T09:04:30.990Z,42.7
2019-04-05T09:05:22.159Z,42.8
2019-04-05T09:06:11.377Z,43
2019-04-05T09:07:02.275Z,43.2
2019-04-05T09:07:52.627Z,43.3
2019-04-05T09:08:42.485Z,43.4
2019-04-05T09:09:32.462Z,43.4
2019-04-05T09:10:22.077Z,43.5
2019-04-05T09:11:12.307Z,43.4
2019-04-05T09:12:02.923Z,43.5
2019-04-05T09:12:52.952Z,43.6
2019-04-05T09:13:43.053Z,43.7
2019-04-05T09:14:32.566Z,43.8
2019-04-05T09:15:22.597Z,43.9
2019-04-05T09:16:16.734Z,44.1
2019-04-05T09:17:03.405Z,44.3
2019-04-05T09:17:53.327Z,44.5
2019-04-05T09:18:43.104Z,44.6
2019-04-05T09:19:32.473Z,44.7
2019-04-05T09:20:23.309Z,44.8
2019-04-05T09:21:18.869Z,44.8
2019-04-05T09:22:03.068Z,44.8
2019-04-05T09:22:53.413Z,44.9
2019-04-05T09:23:43.537Z,45
2019-04-05T09:24:32.732Z,45.2
2019-04-05T09:25:24.686Z,45.4
2019-04-05T09:26:13.944Z,45.7
2019-04-05T09:27:03.736Z,45.9
2019-04-05T09:27:53.577Z,46.2
2019-04-05T09:28:43.353Z,46.3
2019-04-05T09:29:33.911Z,46.4
2019-04-05T09:30:24.237Z,46.5
2019-04-05T09:31:14.336Z,46.6
2019-04-05T09:32:18.737Z,46.6
2019-04-05T09:32:53.887Z,46.6
2019-04-05T09:33:43.928Z,46.6
2019-04-05T09:34:34.685Z,46.6
2019-04-05T09:35:24.096Z,46.6
2019-04-05T09:36:14.721Z,46.9
2019-04-05T09:37:04.210Z,47.1
2019-04-05T09:37:53.691Z,47.4
2019-04-05T09:38:44.638Z,47.8
2019-04-05T09:39:34.613Z,47.9
2019-04-05T09:40:25.755Z,47.8
2019-04-05T09:41:14.746Z,47.7
2019-04-05T09:42:04.570Z,47.5
2019-04-05T09:42:54.605Z,47.3
2019-04-05T09:43:44.995Z,47.2
2019-04-05T09:44:35.130Z,47.2
2019-04-05T09:45:25.066Z,47.1
2019-04-05T09:46:15.387Z,47.1
2019-04-05T09:47:04.636Z,47
2019-04-05T09:47:55.250Z,46.9
2019-04-05T09:48:45.590Z,46.9
2019-04-05T09:49:41.800Z,46.8
2019-04-05T09:50:24.913Z,46.7
2019-04-05T09:51:15.361Z,46.7
2019-04-05T09:52:04.228Z,46.6
2019-04-05T09:52:54.306Z,46.6
2019-04-05T09:53:45.467Z,46.6
2019-04-05T09:54:35.505Z,46.5
2019-04-05T09:55:25.562Z,46.4
2019-04-05T09:56:14.804Z,46.4
2019-04-05T09:57:05.709Z,46.3
2019-04-05T09:57:55.684Z,46.2
2019-04-05T09:58:46.059Z,46.1
2019-04-05T09:59:35.484Z,46
2019-04-05T10:00:26.434Z,45.9
2019-04-05T10:01:15.959Z,45.9
2019-04-05T10:02:06.594Z,45.8
2019-04-05T10:02:56.403Z,45.7
2019-04-05T10:03:46.164Z,45.6
2019-04-05T10:07:16.379Z,45.4
2019-04-05T10:08:39.061Z,45.4
2019-04-05T10:09:59.399Z,45.3
2019-04-05T12:06:13.215Z,35.4
2019-04-05T12:07:03.034Z,35.5
2019-04-05T12:08:01.676Z,35.5
2019-04-05T12:08:42.855Z,35.6
2019-04-05T12:09:33.742Z,35.6
2019-04-05T12:10:24.600Z,35.5
2019-04-05T12:11:13.570Z,35.5
2019-04-05T12:12:03.214Z,35.5
2019-04-05T12:12:54.016Z,35.4
2019-04-05T12:13:43.780Z,35.4
2019-04-05T12:14:39.684Z,35.4
2019-04-05T12:15:23.924Z,35.4
2019-04-05T12:16:15.636Z,35.4
2019-04-05T12:17:11.215Z,35.4
2019-04-05T12:17:53.532Z,35.4
2019-04-05T12:18:44.189Z,35.4
2019-04-05T12:19:40.255Z,35.4
2019-04-05T12:20:24.254Z,35.4
2019-04-05T12:21:14.076Z,35.4
2019-04-05T12:22:11.756Z,35.4
2019-04-05T12:22:57.914Z,35.4
2019-04-05T12:23:44.613Z,35.4
2019-04-05T12:24:37.821Z,35.4
2019-04-05T12:25:24.959Z,35.4
2019-04-05T12:26:14.401Z,35.4
2019-04-05T12:27:09.569Z,35.4
2019-04-05T12:28:12.981Z,35.4
2019-04-05T12:28:44.829Z,35.4
2019-04-05T12:29:34.916Z,35.4
2019-04-05T12:30:24.448Z,35.4
2019-04-05T12:31:15.329Z,35.4
2019-04-05T12:32:04.900Z,35.3
2019-04-05T12:32:55.204Z,35.3
2019-04-05T12:33:53.469Z,35.3
2019-04-05T12:34:34.755Z,35.3
2019-04-05T12:35:27.321Z,35.3
2019-04-05T12:36:15.096Z,35.3
2019-04-05T12:37:05.736Z,35.3
2019-04-05T12:38:00.781Z,35.3
2019-04-05T12:38:45.588Z,35.3
2019-04-05T12:39:40.495Z,35.3
2019-04-05T12:40:25.969Z,35.3
2019-04-05T12:41:19.634Z,35.3
2019-04-05T12:42:05.863Z,35.3
2019-04-05T12:42:58.198Z,35.3
2019-04-05T12:43:52.211Z,35.3
2019-04-05T12:44:35.725Z,35.3
2019-04-05T12:45:26.330Z,35.3
2019-04-05T12:46:21.150Z,35.3
2019-04-05T12:47:05.918Z,35.4
2019-04-05T12:47:58.865Z,35.4
2019-04-05T12:48:50.552Z,35.4
2019-04-05T12:49:36.640Z,35.4
2019-04-05T12:50:25.607Z,35.5
2019-04-05T12:51:20.880Z,35.6
2019-04-05T12:52:05.510Z,35.6
2019-04-05T12:53:00.858Z,35.6
2019-04-05T12:53:46.467Z,35.6
2019-04-05T12:54:36.450Z,35.6
2019-04-05T12:55:29.424Z,35.7
2019-04-05T12:56:16.579Z,35.7
2019-04-05T12:57:06.422Z,35.8
2019-04-05T12:58:00.319Z,35.8
2019-04-05T12:58:47.322Z,35.8
2019-04-05T12:59:37.127Z,35.8
2019-04-05T13:00:31.319Z,35.9
2019-04-05T13:01:17.259Z,35.9
2019-04-05T13:02:07.027Z,35.9
2019-04-05T13:02:59.629Z,35.9
2019-04-05T13:03:46.596Z,35.9
2019-04-05T13:04:37.459Z,36
2019-04-05T13:05:27.279Z,36
2019-04-05T13:06:22.608Z,36.1
2019-04-05T13:07:07.924Z,36.1
2019-04-05T13:07:59.161Z,36.1
2019-04-05T13:08:48.051Z,36.1
2019-04-05T13:09:38.433Z,36.1
2019-04-05T13:10:34.286Z,36.1
2019-04-05T13:11:18.373Z,36.1
2019-04-05T13:12:08.105Z,36.2
2019-04-05T13:13:02.714Z,36.2
2019-04-05T13:13:47.011Z,36.3
2019-04-05T13:14:38.468Z,36.3
2019-04-05T13:15:26.881Z,36.3
2019-04-05T13:16:17.757Z,36.3
2019-04-05T13:17:08.159Z,36.3
2019-04-05T13:18:02.415Z,36.3
2019-04-05T13:18:48.272Z,36.3
2019-04-05T13:19:38.578Z,36.3
2019-04-05T13:20:32.344Z,36.3
2019-04-05T13:21:20.636Z,36.3
2019-04-05T13:22:08.770Z,36.3
2019-04-05T13:22:58.521Z,36.3
2019-04-05T13:23:48.623Z,36.3
2019-04-05T13:24:43.117Z,36.3
2019-04-05T13:25:28.553Z,36.3
2019-04-05T13:26:18.841Z,36.2
2019-04-05T13:27:13.840Z,36.3
2019-04-05T13:27:59.468Z,36.3
2019-04-05T13:28:53.682Z,36.2
2019-04-05T13:29:39.400Z,36.3
2019-04-05T13:30:29.465Z,36.2
2019-04-05T13:31:23.063Z,36.2
2019-04-05T13:32:09.489Z,36.2
2019-04-05T13:32:59.002Z,36.2
2019-04-05T13:33:49.059Z,36.1
2019-04-05T13:34:39.650Z,36.1
2019-04-05T13:35:29.454Z,36.1
2019-04-05T13:36:20.047Z,36.1
2019-04-05T13:37:24.194Z,36
2019-04-05T13:38:04.096Z,36
2019-04-05T13:39:04.582Z,36
2019-04-05T13:39:40.062Z,35.9
2019-04-05T13:40:34.522Z,35.9
2019-04-05T13:41:22.726Z,35.9
2019-04-05T13:42:10.540Z,35.9
2019-04-05T13:43:05.070Z,35.9
2019-04-05T13:43:50.297Z,35.9
2019-04-05T13:44:40.125Z,35.9
2019-04-05T13:45:30.164Z,35.9
2019-04-05T13:46:30.750Z,35.9
2019-04-05T13:47:13.976Z,35.9
2019-04-05T13:48:00.637Z,35.8
2019-04-05T13:48:50.707Z,35.8
2019-04-05T13:49:45.334Z,35.8
2019-04-05T13:50:30.822Z,35.8
2019-04-05T13:51:36.487Z,35.8
2019-04-05T13:52:16.305Z,35.8
2019-04-05T13:53:00.732Z,35.7
2019-04-05T13:53:51.431Z,35.6
2019-04-05T13:54:44.688Z,35.6
2019-04-05T13:55:31.221Z,35.6
2019-04-05T13:56:21.511Z,35.6
2019-04-05T13:57:14.924Z,35.6
2019-04-05T13:58:04.674Z,35.5
2019-04-05T13:58:52.088Z,35.4
2019-04-05T13:59:41.216Z,35.4
2019-04-05T14:00:31.538Z,35.4
2019-04-05T14:01:26.301Z,35.4
2019-04-05T14:02:11.898Z,35.4
2019-04-05T14:03:01.731Z,35.3
2019-04-05T14:03:54.763Z,35.3
2019-04-05T14:04:42.109Z,35.3
2019-04-05T14:07:13.131Z,35.2
2019-04-05T14:08:15.429Z,35.3
2019-04-05T14:08:53.248Z,35.2
2019-04-05T14:09:46.089Z,35.2
2019-04-05T14:10:33.420Z,35.1
2019-04-05T14:11:25.718Z,35.1
2019-04-05T14:12:15.172Z,35.1
2019-04-05T14:13:03.811Z,35.1
2019-04-05T14:13:53.325Z,35.1
2019-04-05T14:14:53.075Z,35.1
2019-04-05T14:15:36.287Z,35
2019-04-05T14:16:24.078Z,34.9
2019-04-05T14:17:18.650Z,34.9
2019-04-05T14:18:03.937Z,34.9
2019-04-05T14:18:55.232Z,34.9
2019-04-05T14:19:44.035Z,34.9
2019-04-05T14:20:34.087Z,34.8
2019-04-05T14:21:39.413Z,34.8
2019-04-05T14:22:16.616Z,34.8
2019-04-05T14:23:05.840Z,34.8
2019-04-05T14:23:59.201Z,34.7
2019-04-05T14:24:47.083Z,34.7
2019-04-05T14:25:37.048Z,34.6
2019-04-05T14:26:30.953Z,34.6
2019-04-05T14:27:17.003Z,34.6
2019-04-05T14:28:10.248Z,34.6
2019-04-05T14:28:58.495Z,34.5
2019-04-05T14:29:49.621Z,34.4
2019-04-05T14:30:38.653Z,34.4
2019-04-05T14:31:27.295Z,34.4
2019-04-05T14:32:26.963Z,34.4
2019-04-05T14:33:07.423Z,34.4
2019-04-05T14:33:59.848Z,34.4
2019-04-05T14:34:47.785Z,34.3
2019-04-05T14:35:37.845Z,34.3
2019-04-05T14:36:28.611Z,34.3
2019-04-05T14:37:24.914Z,34.3
2019-04-05T14:38:08.395Z,34.3
2019-04-05T14:38:58.125Z,34.3
2019-04-05T14:39:47.878Z,34.3
2019-04-05T14:40:38.231Z,34.3
2019-04-05T14:41:28.260Z,34.2
2019-04-05T14:42:20.285Z,34.2
2019-04-05T14:43:08.425Z,34.2
2019-04-05T14:43:58.947Z,34.1
2019-04-05T14:44:48.007Z,34.1
2019-04-05T14:45:38.383Z,34.1
2019-04-05T14:46:33.067Z,34.1
2019-04-05T14:47:21.286Z,34.1
2019-04-05T14:48:07.447Z,34.1
2019-04-05T14:49:01.944Z,34.1
2019-04-05T14:49:48.357Z,34.1
2019-04-05T14:50:38.699Z,34.1
2019-04-05T14:51:33.347Z,34
2019-04-05T14:52:18.772Z,34
2019-04-05T14:53:08.535Z,34
2019-04-05T14:54:02.961Z,34
2019-04-05T14:54:48.516Z,34
2019-04-05T14:55:39.178Z,34
2019-04-05T14:56:33.586Z,34
2019-04-05T14:57:19.456Z,34
2019-04-05T14:58:14.124Z,34
2019-04-05T14:58:59.553Z,33.9
2019-04-05T14:59:49.351Z,33.9
2019-04-05T15:00:39.701Z,33.9
2019-04-05T15:01:29.464Z,33.9
2019-04-05T15:02:19.243Z,33.9
2019-04-05T15:03:09.656Z,33.9
2019-04-05T15:03:59.656Z,33.8
2019-04-05T15:04:52.799Z,33.8
2019-04-05T15:05:40.061Z,33.8
2019-04-05T15:06:31.741Z,33.7
2019-04-05T15:07:24.431Z,33.8
2019-04-05T15:08:10.031Z,33.7
2019-04-05T15:09:02.752Z,33.7
2019-04-05T15:09:49.506Z,33.6
2019-04-05T15:10:40.131Z,33.6
2019-04-05T15:11:33.945Z,33.6
2019-04-05T15:12:20.226Z,33.6
2019-04-05T15:13:10.046Z,33.4
2019-04-05T15:13:59.535Z,33.4
2019-04-05T15:14:50.512Z,33.4
2019-04-05T15:15:39.930Z,33.4
2019-04-05T15:16:30.298Z,33.4
2019-04-05T15:17:21.410Z,33.3
2019-04-05T15:18:10.382Z,33.3
2019-04-05T15:19:00.996Z,33.3
2019-04-05T15:19:50.499Z,33.2
2019-04-05T15:20:40.637Z,33.2
2019-04-05T15:21:30.395Z,33.1
2019-04-05T15:22:20.690Z,33.1
2019-04-05T15:23:17.890Z,33.1
2019-04-05T15:24:01.385Z,33
2019-04-05T15:24:52.600Z,33
2019-04-05T15:25:40.732Z,32.9
2019-04-05T15:26:31.550Z,32.9
2019-04-05T15:27:25.159Z,32.8
2019-04-05T15:28:11.657Z,32.8
2019-04-05T15:29:01.200Z,32.8
2019-04-05T15:29:55.289Z,32.7
2019-04-05T15:30:41.512Z,32.7
2019-04-05T15:31:31.992Z,32.6
2019-04-05T15:32:28.472Z,32.6
2019-04-05T15:33:11.529Z,32.6
2019-04-05T15:34:03.585Z,32.5
2019-04-05T15:34:51.902Z,32.4
2019-04-05T15:35:41.934Z,32.4
2019-04-05T15:36:35.962Z,32.4
2019-04-05T15:37:22.064Z,32.3
2019-04-05T15:38:11.574Z,32.3
2019-04-05T15:39:06.019Z,32.2
2019-04-05T15:39:51.997Z,32.2
2019-04-05T15:40:42.114Z,32.1
2019-04-05T15:41:32.363Z,32.1
2019-04-05T15:42:22.744Z,32.1
2019-04-05T15:43:12.771Z,32
2019-04-05T15:44:05.813Z,31.9
2019-04-05T15:44:52.849Z,31.9
2019-04-05T15:45:45.677Z,31.9
2019-04-05T15:46:32.476Z,31.8
2019-04-05T15:47:26.581Z,31.8
2019-04-05T15:48:12.502Z,31.8
2019-04-05T15:49:02.946Z,31.7
2019-04-05T15:49:56.898Z,31.6
2019-04-05T15:50:42.750Z,31.6
2019-04-05T15:51:33.596Z,31.6
2019-04-05T15:52:32.441Z,31.6
2019-04-05T15:53:12.593Z,31.5
2019-04-05T15:54:05.750Z,31.4
2019-04-05T15:54:53.368Z,31.4
2019-04-05T15:55:42.635Z,31.4
2019-04-05T15:56:37.190Z,31.3
2019-04-05T15:57:22.773Z,31.3
2019-04-05T15:58:12.935Z,31.3
2019-04-05T15:59:07.842Z,31.2
2019-04-05T15:59:53.334Z,31.1
2019-04-05T16:00:43.843Z,31.1
2019-04-05T16:01:37.893Z,31.1
2019-04-05T16:02:24.165Z,31.1
2019-04-05T16:03:13.907Z,31
2019-04-05T16:04:07.766Z,30.9
2019-04-05T16:04:53.280Z,30.9
2019-04-05T16:07:13.091Z,30.8
2019-04-05T16:08:02.892Z,30.8
2019-04-05T16:08:52.905Z,30.7
2019-04-05T16:09:42.959Z,30.6
2019-04-05T16:10:33.583Z,30.6
2019-04-05T16:11:23.625Z,30.6
2019-04-05T16:12:13.134Z,30.5
2019-04-05T16:13:02.916Z,30.4
2019-04-05T16:13:53.536Z,30.4
2019-04-05T16:14:43.590Z,30.4
2019-04-05T16:15:33.369Z,30.3
2019-04-05T16:16:24.011Z,30.2
2019-04-05T16:17:16.597Z,30
2019-04-05T16:18:03.554Z,29.8
2019-04-05T16:18:53.884Z,29.7
2019-04-05T16:19:44.568Z,29.5
2019-04-05T16:20:33.811Z,29.4
2019-04-05T16:21:23.864Z,29.3
2019-04-05T16:22:13.850Z,29.1
2019-04-05T16:23:03.689Z,29